sensor_id;sensor_type;location;lat;lon;timestamp;temperature;humidity
23301;DHT22;11819;51.394;12.340;2023-05-14T00:02:02;16.10;81.10
23301;DHT22;11819;51.394;12.340;2023-05-14T00:04:27;16.10;81.10
23301;DHT22;11819;51.394;12.340;2023-05-14T00:06:55;16.10;81.10
23301;DHT22;11819;51.394;12.340;2023-05-14T00:09:21;16.00;81.10
23301;DHT22;11819;51.394;12.340;2023-05-14T00:11:46;16.00;81.10
23301;DHT22;11819;51.394;12.340;2023-05-14T00:14:12;16.10;81.10
23301;DHT22;11819;51.394;12.340;2023-05-14T00:16:38;16.00;81.10
23301;DHT22;11819;51.394;12.340;2023-05-14T00:19:03;16.00;81.20
23301;DHT22;11819;51.394;12.340;2023-05-14T00:21:29;16.00;81.20
23301;DHT22;11819;51.394;12.340;2023-05-14T00:23:56;16.00;81.20
23301;DHT22;11819;51.394;12.340;2023-05-14T00:26:21;16.00;81.30
23301;DHT22;11819;51.394;12.340;2023-05-14T00:28:47;16.00;81.40
23301;DHT22;11819;51.394;12.340;2023-05-14T00:31:14;16.00;81.60
23301;DHT22;11819;51.394;12.340;2023-05-14T00:33:39;16.00;81.60
23301;DHT22;11819;51.394;12.340;2023-05-14T00:36:05;16.00;81.80
23301;DHT22;11819;51.394;12.340;2023-05-14T00:38:31;16.00;81.90
23301;DHT22;11819;51.394;12.340;2023-05-14T00:40:56;15.90;81.80
23301;DHT22;11819;51.394;12.340;2023-05-14T00:43:22;15.90;81.80
23301;DHT22;11819;51.394;12.340;2023-05-14T00:45:50;15.90;82.00
23301;DHT22;11819;51.394;12.340;2023-05-14T00:48:16;15.90;82.30
23301;DHT22;11819;51.394;12.340;2023-05-14T00:50:42;15.90;82.30
23301;DHT22;11819;51.394;12.340;2023-05-14T00:53:08;15.90;82.40
23301;DHT22;11819;51.394;12.340;2023-05-14T00:55:40;15.80;82.30
23301;DHT22;11819;51.394;12.340;2023-05-14T00:58:12;15.90;82.20
23301;DHT22;11819;51.394;12.340;2023-05-14T01:00:39;15.90;82.10
23301;DHT22;11819;51.394;12.340;2023-05-14T01:03:06;15.90;82.10
23301;DHT22;11819;51.394;12.340;2023-05-14T01:11:18;15.80;81.80
23301;DHT22;11819;51.394;12.340;2023-05-14T01:14:10;15.80;81.70
23301;DHT22;11819;51.394;12.340;2023-05-14T01:16:39;15.80;81.60
23301;DHT22;11819;51.394;12.340;2023-05-14T01:19:09;15.80;81.60
23301;DHT22;11819;51.394;12.340;2023-05-14T01:21:42;15.80;81.50
23301;DHT22;11819;51.394;12.340;2023-05-14T01:24:08;15.80;81.60
23301;DHT22;11819;51.394;12.340;2023-05-14T01:26:36;15.70;81.60
23301;DHT22;11819;51.394;12.340;2023-05-14T01:29:21;15.70;81.70
23301;DHT22;11819;51.394;12.340;2023-05-14T01:31:49;15.70;81.70
23301;DHT22;11819;51.394;12.340;2023-05-14T01:34:19;15.70;81.80
23301;DHT22;11819;51.394;12.340;2023-05-14T01:36:46;15.60;81.90
23301;DHT22;11819;51.394;12.340;2023-05-14T01:39:15;15.60;82.10
23301;DHT22;11819;51.394;12.340;2023-05-14T01:41:41;15.60;82.40
23301;DHT22;11819;51.394;12.340;2023-05-14T01:44:10;15.60;82.60
23301;DHT22;11819;51.394;12.340;2023-05-14T01:46:36;15.50;83.60
23301;DHT22;11819;51.394;12.340;2023-05-14T01:49:02;15.50;82.90
23301;DHT22;11819;51.394;12.340;2023-05-14T01:51:28;15.50;83.20
23301;DHT22;11819;51.394;12.340;2023-05-14T01:53:54;15.50;83.40
23301;DHT22;11819;51.394;12.340;2023-05-14T01:56:21;15.50;83.60
23301;DHT22;11819;51.394;12.340;2023-05-14T01:58:48;15.50;83.80
23301;DHT22;11819;51.394;12.340;2023-05-14T02:01:14;15.50;84.10
23301;DHT22;11819;51.394;12.340;2023-05-14T02:03:40;15.40;84.10
23301;DHT22;11819;51.394;12.340;2023-05-14T02:06:06;15.30;84.30
23301;DHT22;11819;51.394;12.340;2023-05-14T02:08:32;15.30;84.70
23301;DHT22;11819;51.394;12.340;2023-05-14T02:10:57;15.30;85.10
23301;DHT22;11819;51.394;12.340;2023-05-14T02:13:24;15.20;85.10
23301;DHT22;11819;51.394;12.340;2023-05-14T02:15:50;15.20;85.30
23301;DHT22;11819;51.394;12.340;2023-05-14T02:18:16;15.20;85.50
23301;DHT22;11819;51.394;12.340;2023-05-14T02:20:43;15.20;85.60
23301;DHT22;11819;51.394;12.340;2023-05-14T02:23:09;15.20;85.70
23301;DHT22;11819;51.394;12.340;2023-05-14T02:25:36;15.20;85.80
23301;DHT22;11819;51.394;12.340;2023-05-14T02:28:01;15.10;85.80
23301;DHT22;11819;51.394;12.340;2023-05-14T02:30:27;15.10;85.90
23301;DHT22;11819;51.394;12.340;2023-05-14T02:32:54;15.10;86.00
23301;DHT22;11819;51.394;12.340;2023-05-14T02:35:20;15.10;86.00
23301;DHT22;11819;51.394;12.340;2023-05-14T02:37:45;15.10;86.00
23301;DHT22;11819;51.394;12.340;2023-05-14T02:40:11;15.20;86.00
23301;DHT22;11819;51.394;12.340;2023-05-14T02:42:37;15.10;86.10
23301;DHT22;11819;51.394;12.340;2023-05-14T02:45:03;15.10;86.20
23301;DHT22;11819;51.394;12.340;2023-05-14T02:47:28;15.10;86.40
23301;DHT22;11819;51.394;12.340;2023-05-14T02:49:54;15.00;86.60
23301;DHT22;11819;51.394;12.340;2023-05-14T02:52:20;15.00;86.70
23301;DHT22;11819;51.394;12.340;2023-05-14T02:54:46;15.00;86.80
23301;DHT22;11819;51.394;12.340;2023-05-14T02:57:11;14.90;87.00
23301;DHT22;11819;51.394;12.340;2023-05-14T02:59:37;14.90;87.20
23301;DHT22;11819;51.394;12.340;2023-05-14T03:02:03;14.90;87.40
23301;DHT22;11819;51.394;12.340;2023-05-14T03:04:29;14.90;87.50
23301;DHT22;11819;51.394;12.340;2023-05-14T03:06:55;14.80;87.50
23301;DHT22;11819;51.394;12.340;2023-05-14T03:09:24;14.90;87.80
23301;DHT22;11819;51.394;12.340;2023-05-14T03:11:51;14.80;88.00
23301;DHT22;11819;51.394;12.340;2023-05-14T03:14:17;14.80;88.10
23301;DHT22;11819;51.394;12.340;2023-05-14T03:16:42;14.80;88.20
23301;DHT22;11819;51.394;12.340;2023-05-14T03:19:09;14.70;88.20
23301;DHT22;11819;51.394;12.340;2023-05-14T03:21:35;14.70;88.30
23301;DHT22;11819;51.394;12.340;2023-05-14T03:24:00;14.70;88.40
23301;DHT22;11819;51.394;12.340;2023-05-14T03:26:26;14.70;88.50
23301;DHT22;11819;51.394;12.340;2023-05-14T03:28:53;14.70;89.60
23301;DHT22;11819;51.394;12.340;2023-05-14T03:31:19;14.70;88.80
23301;DHT22;11819;51.394;12.340;2023-05-14T03:33:45;14.60;88.70
23301;DHT22;11819;51.394;12.340;2023-05-14T03:36:10;14.60;88.90
23301;DHT22;11819;51.394;12.340;2023-05-14T03:38:36;14.60;88.90
23301;DHT22;11819;51.394;12.340;2023-05-14T03:41:01;14.60;89.00
23301;DHT22;11819;51.394;12.340;2023-05-14T03:43:28;14.60;89.10
23301;DHT22;11819;51.394;12.340;2023-05-14T03:45:54;14.60;89.00
23301;DHT22;11819;51.394;12.340;2023-05-14T03:48:21;14.60;88.90
23301;DHT22;11819;51.394;12.340;2023-05-14T03:50:49;14.50;89.00
23301;DHT22;11819;51.394;12.340;2023-05-14T03:53:15;14.50;89.10
23301;DHT22;11819;51.394;12.340;2023-05-14T03:55:41;14.50;89.30
23301;DHT22;11819;51.394;12.340;2023-05-14T03:58:10;14.50;89.30
23301;DHT22;11819;51.394;12.340;2023-05-14T04:00:42;14.50;89.40
23301;DHT22;11819;51.394;12.340;2023-05-14T04:03:09;14.50;89.50
23301;DHT22;11819;51.394;12.340;2023-05-14T04:05:36;14.50;89.60
23301;DHT22;11819;51.394;12.340;2023-05-14T04:08:02;14.50;89.60
23301;DHT22;11819;51.394;12.340;2023-05-14T04:10:28;14.50;89.50
23301;DHT22;11819;51.394;12.340;2023-05-14T04:12:53;14.50;89.50
23301;DHT22;11819;51.394;12.340;2023-05-14T04:15:28;14.60;89.50
23301;DHT22;11819;51.394;12.340;2023-05-14T04:17:53;14.60;89.50
23301;DHT22;11819;51.394;12.340;2023-05-14T04:20:19;14.60;89.50
23301;DHT22;11819;51.394;12.340;2023-05-14T04:22:45;14.60;89.40
23301;DHT22;11819;51.394;12.340;2023-05-14T04:25:11;14.60;89.20
23301;DHT22;11819;51.394;12.340;2023-05-14T04:27:37;14.60;89.30
23301;DHT22;11819;51.394;12.340;2023-05-14T04:30:03;14.60;89.20
23301;DHT22;11819;51.394;12.340;2023-05-14T04:32:30;14.60;89.20
23301;DHT22;11819;51.394;12.340;2023-05-14T04:34:56;14.70;89.20
23301;DHT22;11819;51.394;12.340;2023-05-14T04:37:22;14.80;89.00
23301;DHT22;11819;51.394;12.340;2023-05-14T04:39:47;14.80;88.80
23301;DHT22;11819;51.394;12.340;2023-05-14T04:42:13;14.90;88.80
23301;DHT22;11819;51.394;12.340;2023-05-14T04:44:39;14.90;88.60
23301;DHT22;11819;51.394;12.340;2023-05-14T04:47:05;15.00;88.50
23301;DHT22;11819;51.394;12.340;2023-05-14T04:49:31;14.90;88.20
23301;DHT22;11819;51.394;12.340;2023-05-14T04:51:58;15.00;88.10
23301;DHT22;11819;51.394;12.340;2023-05-14T04:54:23;15.00;87.90
23301;DHT22;11819;51.394;12.340;2023-05-14T04:56:50;15.00;87.70
23301;DHT22;11819;51.394;12.340;2023-05-14T04:59:15;15.00;87.70
23301;DHT22;11819;51.394;12.340;2023-05-14T05:01:41;15.00;87.60
23301;DHT22;11819;51.394;12.340;2023-05-14T05:04:06;15.10;87.40
23301;DHT22;11819;51.394;12.340;2023-05-14T05:06:32;15.10;87.20
23301;DHT22;11819;51.394;12.340;2023-05-14T05:08:57;15.10;87.10
23301;DHT22;11819;51.394;12.340;2023-05-14T05:11:23;15.20;86.90
23301;DHT22;11819;51.394;12.340;2023-05-14T05:13:49;15.20;86.80
23301;DHT22;11819;51.394;12.340;2023-05-14T05:16:15;15.20;86.70
23301;DHT22;11819;51.394;12.340;2023-05-14T05:18:40;15.30;86.70
23301;DHT22;11819;51.394;12.340;2023-05-14T05:21:07;15.30;86.70
23301;DHT22;11819;51.394;12.340;2023-05-14T05:23:35;15.30;86.60
23301;DHT22;11819;51.394;12.340;2023-05-14T05:26:08;15.30;86.30
23301;DHT22;11819;51.394;12.340;2023-05-14T05:28:34;15.40;86.40
23301;DHT22;11819;51.394;12.340;2023-05-14T05:30:59;15.40;86.20
23301;DHT22;11819;51.394;12.340;2023-05-14T05:33:25;15.40;86.10
23301;DHT22;11819;51.394;12.340;2023-05-14T05:35:51;15.40;86.10
23301;DHT22;11819;51.394;12.340;2023-05-14T05:38:18;15.50;86.20
23301;DHT22;11819;51.394;12.340;2023-05-14T05:40:44;15.50;86.30
23301;DHT22;11819;51.394;12.340;2023-05-14T05:43:09;15.50;86.20
23301;DHT22;11819;51.394;12.340;2023-05-14T05:45:36;15.60;86.20
23301;DHT22;11819;51.394;12.340;2023-05-14T05:48:03;15.60;85.90
23301;DHT22;11819;51.394;12.340;2023-05-14T05:50:29;15.70;85.40
23301;DHT22;11819;51.394;12.340;2023-05-14T05:52:56;15.70;85.10
23301;DHT22;11819;51.394;12.340;2023-05-14T05:55:24;15.70;84.70
23301;DHT22;11819;51.394;12.340;2023-05-14T05:57:49;15.80;84.60
23301;DHT22;11819;51.394;12.340;2023-05-14T06:00:16;15.80;84.50
23301;DHT22;11819;51.394;12.340;2023-05-14T06:02:44;15.90;85.20
23301;DHT22;11819;51.394;12.340;2023-05-14T06:05:12;15.90;84.30
23301;DHT22;11819;51.394;12.340;2023-05-14T06:07:38;16.00;84.10
23301;DHT22;11819;51.394;12.340;2023-05-14T06:10:05;16.00;83.90
23301;DHT22;11819;51.394;12.340;2023-05-14T06:12:32;16.00;83.60
23301;DHT22;11819;51.394;12.340;2023-05-14T06:14:58;16.00;83.40
23301;DHT22;11819;51.394;12.340;2023-05-14T06:17:24;16.00;83.30
23301;DHT22;11819;51.394;12.340;2023-05-14T06:19:52;16.00;83.30
23301;DHT22;11819;51.394;12.340;2023-05-14T06:22:18;16.10;83.30
23301;DHT22;11819;51.394;12.340;2023-05-14T06:24:46;16.10;83.10
23301;DHT22;11819;51.394;12.340;2023-05-14T06:27:11;16.10;83.00
23301;DHT22;11819;51.394;12.340;2023-05-14T06:29:37;16.00;83.20
23301;DHT22;11819;51.394;12.340;2023-05-14T06:32:04;16.00;83.40
23301;DHT22;11819;51.394;12.340;2023-05-14T06:34:30;16.00;83.60
23301;DHT22;11819;51.394;12.340;2023-05-14T06:36:56;15.90;83.90
23301;DHT22;11819;51.394;12.340;2023-05-14T06:39:22;15.90;84.00
23301;DHT22;11819;51.394;12.340;2023-05-14T06:41:48;15.90;84.10
23301;DHT22;11819;51.394;12.340;2023-05-14T06:44:17;15.90;84.00
23301;DHT22;11819;51.394;12.340;2023-05-14T06:46:43;15.90;84.10
23301;DHT22;11819;51.394;12.340;2023-05-14T06:49:09;15.90;83.80
23301;DHT22;11819;51.394;12.340;2023-05-14T06:51:35;15.90;83.80
23301;DHT22;11819;51.394;12.340;2023-05-14T06:54:03;16.00;83.70
23301;DHT22;11819;51.394;12.340;2023-05-14T06:56:29;16.00;83.20
23301;DHT22;11819;51.394;12.340;2023-05-14T06:58:55;16.10;82.80
23301;DHT22;11819;51.394;12.340;2023-05-14T07:01:21;16.20;82.70
23301;DHT22;11819;51.394;12.340;2023-05-14T07:03:49;16.20;82.20
23301;DHT22;11819;51.394;12.340;2023-05-14T07:06:14;16.20;81.60
23301;DHT22;11819;51.394;12.340;2023-05-14T07:08:41;16.30;81.40
23301;DHT22;11819;51.394;12.340;2023-05-14T07:11:06;16.30;81.10
23301;DHT22;11819;51.394;12.340;2023-05-14T07:13:34;16.40;80.60
23301;DHT22;11819;51.394;12.340;2023-05-14T07:16:00;16.40;80.00
23301;DHT22;11819;51.394;12.340;2023-05-14T07:18:25;16.40;79.60
23301;DHT22;11819;51.394;12.340;2023-05-14T07:20:51;16.40;79.50
23301;DHT22;11819;51.394;12.340;2023-05-14T07:23:17;16.40;79.60
23301;DHT22;11819;51.394;12.340;2023-05-14T07:25:43;16.50;79.60
23301;DHT22;11819;51.394;12.340;2023-05-14T07:28:08;16.40;79.40
23301;DHT22;11819;51.394;12.340;2023-05-14T07:30:34;16.50;79.00
23301;DHT22;11819;51.394;12.340;2023-05-14T07:33:01;16.60;78.60
23301;DHT22;11819;51.394;12.340;2023-05-14T07:35:26;16.60;78.20
23301;DHT22;11819;51.394;12.340;2023-05-14T07:37:52;16.60;78.30
23301;DHT22;11819;51.394;12.340;2023-05-14T07:40:18;16.60;78.50
23301;DHT22;11819;51.394;12.340;2023-05-14T07:42:45;16.60;78.10
23301;DHT22;11819;51.394;12.340;2023-05-14T07:45:10;16.70;77.90
23301;DHT22;11819;51.394;12.340;2023-05-14T07:47:36;16.70;77.40
23301;DHT22;11819;51.394;12.340;2023-05-14T07:50:04;16.70;77.00
23301;DHT22;11819;51.394;12.340;2023-05-14T07:52:30;16.80;77.20
23301;DHT22;11819;51.394;12.340;2023-05-14T07:54:56;16.80;77.40
23301;DHT22;11819;51.394;12.340;2023-05-14T07:57:21;16.90;77.50
23301;DHT22;11819;51.394;12.340;2023-05-14T07:59:48;16.90;77.50
23301;DHT22;11819;51.394;12.340;2023-05-14T08:02:14;17.00;77.10
23301;DHT22;11819;51.394;12.340;2023-05-14T08:04:41;17.00;76.70
23301;DHT22;11819;51.394;12.340;2023-05-14T08:07:08;17.10;77.10
23301;DHT22;11819;51.394;12.340;2023-05-14T08:09:33;17.10;77.40
23301;DHT22;11819;51.394;12.340;2023-05-14T08:11:59;17.10;76.30
23301;DHT22;11819;51.394;12.340;2023-05-14T08:14:25;17.20;76.20
23301;DHT22;11819;51.394;12.340;2023-05-14T08:16:51;17.20;76.00
23301;DHT22;11819;51.394;12.340;2023-05-14T08:19:17;17.30;76.20
23301;DHT22;11819;51.394;12.340;2023-05-14T08:21:43;17.30;76.50
23301;DHT22;11819;51.394;12.340;2023-05-14T08:24:09;17.30;76.90
23301;DHT22;11819;51.394;12.340;2023-05-14T08:26:35;17.30;77.10
23301;DHT22;11819;51.394;12.340;2023-05-14T08:29:03;17.30;76.70
23301;DHT22;11819;51.394;12.340;2023-05-14T08:31:29;17.30;76.60
23301;DHT22;11819;51.394;12.340;2023-05-14T08:33:55;17.40;76.90
23301;DHT22;11819;51.394;12.340;2023-05-14T08:36:21;17.40;76.60
23301;DHT22;11819;51.394;12.340;2023-05-14T08:38:48;17.40;77.20
23301;DHT22;11819;51.394;12.340;2023-05-14T08:41:15;17.50;76.60
23301;DHT22;11819;51.394;12.340;2023-05-14T08:46:16;17.50;76.00
23301;DHT22;11819;51.394;12.340;2023-05-14T08:48:42;17.50;76.80
23301;DHT22;11819;51.394;12.340;2023-05-14T08:51:12;17.50;76.10
23301;DHT22;11819;51.394;12.340;2023-05-14T08:53:38;17.60;75.70
23301;DHT22;11819;51.394;12.340;2023-05-14T08:56:06;17.70;75.20
23301;DHT22;11819;51.394;12.340;2023-05-14T08:58:33;17.80;75.70
23301;DHT22;11819;51.394;12.340;2023-05-14T09:00:58;17.80;75.70
23301;DHT22;11819;51.394;12.340;2023-05-14T09:03:24;17.90;75.50
23301;DHT22;11819;51.394;12.340;2023-05-14T09:05:51;18.00;75.20
23301;DHT22;11819;51.394;12.340;2023-05-14T09:08:19;18.10;74.70
23301;DHT22;11819;51.394;12.340;2023-05-14T09:10:45;18.20;74.30
23301;DHT22;11819;51.394;12.340;2023-05-14T09:13:12;18.30;74.00
23301;DHT22;11819;51.394;12.340;2023-05-14T09:15:38;18.30;73.10
23301;DHT22;11819;51.394;12.340;2023-05-14T09:18:06;18.30;72.90
23301;DHT22;11819;51.394;12.340;2023-05-14T09:20:32;18.40;72.40
23301;DHT22;11819;51.394;12.340;2023-05-14T09:22:59;18.40;71.20
23301;DHT22;11819;51.394;12.340;2023-05-14T09:25:31;18.50;71.50
23301;DHT22;11819;51.394;12.340;2023-05-14T09:27:57;18.50;71.50
23301;DHT22;11819;51.394;12.340;2023-05-14T09:30:23;18.50;71.40
23301;DHT22;11819;51.394;12.340;2023-05-14T09:32:52;18.50;71.60
23301;DHT22;11819;51.394;12.340;2023-05-14T09:35:20;18.50;71.70
23301;DHT22;11819;51.394;12.340;2023-05-14T09:37:48;18.60;71.40
23301;DHT22;11819;51.394;12.340;2023-05-14T09:40:16;18.60;71.20
23301;DHT22;11819;51.394;12.340;2023-05-14T09:42:42;18.60;71.10
23301;DHT22;11819;51.394;12.340;2023-05-14T09:45:09;18.70;71.00
23301;DHT22;11819;51.394;12.340;2023-05-14T09:47:36;18.70;70.80
23301;DHT22;11819;51.394;12.340;2023-05-14T09:50:03;18.70;70.70
23301;DHT22;11819;51.394;12.340;2023-05-14T09:52:33;18.70;70.20
23301;DHT22;11819;51.394;12.340;2023-05-14T09:54:59;18.60;69.70
23301;DHT22;11819;51.394;12.340;2023-05-14T09:57:26;18.60;69.60
23301;DHT22;11819;51.394;12.340;2023-05-14T09:59:53;18.50;69.40
23301;DHT22;11819;51.394;12.340;2023-05-14T10:02:24;18.50;68.70
23301;DHT22;11819;51.394;12.340;2023-05-14T10:04:54;18.50;68.60
23301;DHT22;11819;51.394;12.340;2023-05-14T10:07:26;18.50;68.80
23301;DHT22;11819;51.394;12.340;2023-05-14T10:09:58;18.50;69.00
23301;DHT22;11819;51.394;12.340;2023-05-14T10:12:28;18.50;69.00
23301;DHT22;11819;51.394;12.340;2023-05-14T10:14:57;18.50;69.30
23301;DHT22;11819;51.394;12.340;2023-05-14T10:17:26;18.50;69.30
23301;DHT22;11819;51.394;12.340;2023-05-14T10:19:57;18.50;69.00
23301;DHT22;11819;51.394;12.340;2023-05-14T10:22:26;18.60;68.80
23301;DHT22;11819;51.394;12.340;2023-05-14T10:24:55;18.70;68.90
23301;DHT22;11819;51.394;12.340;2023-05-14T10:27:22;18.70;68.70
23301;DHT22;11819;51.394;12.340;2023-05-14T10:29:53;18.70;68.20
23301;DHT22;11819;51.394;12.340;2023-05-14T10:32:21;18.70;67.30
23301;DHT22;11819;51.394;12.340;2023-05-14T10:34:48;18.80;67.50
23301;DHT22;11819;51.394;12.340;2023-05-14T10:37:25;18.90;67.30
23301;DHT22;11819;51.394;12.340;2023-05-14T10:39:53;19.00;67.40
23301;DHT22;11819;51.394;12.340;2023-05-14T10:42:24;19.10;67.10
23301;DHT22;11819;51.394;12.340;2023-05-14T10:45:00;19.30;66.40
23301;DHT22;11819;51.394;12.340;2023-05-14T10:47:28;19.40;66.80
23301;DHT22;11819;51.394;12.340;2023-05-14T10:49:58;19.70;68.90
23301;DHT22;11819;51.394;12.340;2023-05-14T10:52:25;19.90;67.20
23301;DHT22;11819;51.394;12.340;2023-05-14T10:54:55;20.00;65.60
23301;DHT22;11819;51.394;12.340;2023-05-14T10:57:25;20.00;63.60
23301;DHT22;11819;51.394;12.340;2023-05-14T10:59:53;20.00;63.20
23301;DHT22;11819;51.394;12.340;2023-05-14T11:02:23;19.90;64.30
23301;DHT22;11819;51.394;12.340;2023-05-14T11:05:11;19.80;65.50
23301;DHT22;11819;51.394;12.340;2023-05-14T11:07:43;19.70;65.50
23301;DHT22;11819;51.394;12.340;2023-05-14T11:10:16;19.60;65.40
23301;DHT22;11819;51.394;12.340;2023-05-14T11:12:44;19.60;65.50
23301;DHT22;11819;51.394;12.340;2023-05-14T11:15:15;19.60;65.50
23301;DHT22;11819;51.394;12.340;2023-05-14T11:17:43;19.60;65.60
23301;DHT22;11819;51.394;12.340;2023-05-14T11:20:10;19.60;65.70
23301;DHT22;11819;51.394;12.340;2023-05-14T11:22:37;19.60;66.00
23301;DHT22;11819;51.394;12.340;2023-05-14T11:25:03;19.90;66.50
23301;DHT22;11819;51.394;12.340;2023-05-14T11:27:30;20.30;65.90
23301;DHT22;11819;51.394;12.340;2023-05-14T11:29:56;20.60;64.60
23301;DHT22;11819;51.394;12.340;2023-05-14T11:32:25;20.90;63.00
23301;DHT22;11819;51.394;12.340;2023-05-14T11:34:51;21.30;63.20
23301;DHT22;11819;51.394;12.340;2023-05-14T11:37:17;21.40;60.90
23301;DHT22;11819;51.394;12.340;2023-05-14T11:39:54;21.40;60.20
23301;DHT22;11819;51.394;12.340;2023-05-14T11:42:21;21.30;60.00
23301;DHT22;11819;51.394;12.340;2023-05-14T11:44:49;21.10;60.40
23301;DHT22;11819;51.394;12.340;2023-05-14T11:47:17;21.00;60.60
23301;DHT22;11819;51.394;12.340;2023-05-14T11:49:43;21.00;61.10
23301;DHT22;11819;51.394;12.340;2023-05-14T11:52:10;21.00;61.30
23301;DHT22;11819;51.394;12.340;2023-05-14T11:54:36;21.00;61.20
23301;DHT22;11819;51.394;12.340;2023-05-14T11:57:14;20.90;61.20
23301;DHT22;11819;51.394;12.340;2023-05-14T11:59:48;20.80;60.60
23301;DHT22;11819;51.394;12.340;2023-05-14T12:02:19;20.70;61.00
23301;DHT22;11819;51.394;12.340;2023-05-14T12:04:49;20.60;61.70
23301;DHT22;11819;51.394;12.340;2023-05-14T12:07:16;20.60;62.60
23301;DHT22;11819;51.394;12.340;2023-05-14T12:09:45;20.50;63.00
23301;DHT22;11819;51.394;12.340;2023-05-14T12:12:16;20.40;63.10
23301;DHT22;11819;51.394;12.340;2023-05-14T12:14:42;20.30;63.30
23301;DHT22;11819;51.394;12.340;2023-05-14T12:17:15;20.30;62.80
23301;DHT22;11819;51.394;12.340;2023-05-14T12:19:42;20.20;62.10
23301;DHT22;11819;51.394;12.340;2023-05-14T12:22:09;20.20;62.20
23301;DHT22;11819;51.394;12.340;2023-05-14T12:24:35;20.20;62.40
23301;DHT22;11819;51.394;12.340;2023-05-14T12:27:01;20.20;62.50
23301;DHT22;11819;51.394;12.340;2023-05-14T12:29:27;20.20;61.70
23301;DHT22;11819;51.394;12.340;2023-05-14T12:31:55;20.20;61.60
23301;DHT22;11819;51.394;12.340;2023-05-14T12:34:21;20.10;61.90
23301;DHT22;11819;51.394;12.340;2023-05-14T12:36:47;20.10;62.90
23301;DHT22;11819;51.394;12.340;2023-05-14T12:39:12;20.20;63.70
23301;DHT22;11819;51.394;12.340;2023-05-14T12:41:38;20.20;63.80
23301;DHT22;11819;51.394;12.340;2023-05-14T12:44:04;20.20;64.20
23301;DHT22;11819;51.394;12.340;2023-05-14T12:46:31;20.20;64.80
23301;DHT22;11819;51.394;12.340;2023-05-14T12:48:57;20.30;64.70
23301;DHT22;11819;51.394;12.340;2023-05-14T12:51:23;20.30;64.80
23301;DHT22;11819;51.394;12.340;2023-05-14T12:53:48;20.40;65.00
23301;DHT22;11819;51.394;12.340;2023-05-14T12:56:16;20.40;64.80
23301;DHT22;11819;51.394;12.340;2023-05-14T12:58:42;20.50;64.90
23301;DHT22;11819;51.394;12.340;2023-05-14T13:01:08;20.60;65.10
23301;DHT22;11819;51.394;12.340;2023-05-14T13:03:33;20.60;65.00
23301;DHT22;11819;51.394;12.340;2023-05-14T13:05:59;20.80;65.00
23301;DHT22;11819;51.394;12.340;2023-05-14T13:08:25;21.00;64.80
23301;DHT22;11819;51.394;12.340;2023-05-14T13:10:55;21.30;64.40
23301;DHT22;11819;51.394;12.340;2023-05-14T13:13:22;21.90;63.30
23301;DHT22;11819;51.394;12.340;2023-05-14T13:15:47;22.70;60.80
23301;DHT22;11819;51.394;12.340;2023-05-14T13:18:14;23.30;57.20
23301;DHT22;11819;51.394;12.340;2023-05-14T13:20:40;23.80;55.60
23301;DHT22;11819;51.394;12.340;2023-05-14T13:23:06;24.00;54.20
23301;DHT22;11819;51.394;12.340;2023-05-14T13:25:31;24.00;53.90
23301;DHT22;11819;51.394;12.340;2023-05-14T13:27:57;23.90;53.80
23301;DHT22;11819;51.394;12.340;2023-05-14T13:30:22;23.70;54.40
23301;DHT22;11819;51.394;12.340;2023-05-14T13:32:48;23.50;55.30
23301;DHT22;11819;51.394;12.340;2023-05-14T13:35:14;23.20;55.90
23301;DHT22;11819;51.394;12.340;2023-05-14T13:37:39;22.90;56.60
23301;DHT22;11819;51.394;12.340;2023-05-14T13:40:05;22.70;57.20
23301;DHT22;11819;51.394;12.340;2023-05-14T13:42:33;22.60;57.70
23301;DHT22;11819;51.394;12.340;2023-05-14T13:44:59;22.40;57.80
23301;DHT22;11819;51.394;12.340;2023-05-14T13:47:25;22.30;58.30
23301;DHT22;11819;51.394;12.340;2023-05-14T13:49:54;22.20;58.40
23301;DHT22;11819;51.394;12.340;2023-05-14T13:52:21;22.10;58.30
23301;DHT22;11819;51.394;12.340;2023-05-14T13:54:47;22.10;58.20
23301;DHT22;11819;51.394;12.340;2023-05-14T13:57:13;22.00;58.40
23301;DHT22;11819;51.394;12.340;2023-05-14T13:59:39;22.00;58.60
23301;DHT22;11819;51.394;12.340;2023-05-14T14:02:05;21.90;58.70
23301;DHT22;11819;51.394;12.340;2023-05-14T14:04:31;21.90;58.60
23301;DHT22;11819;51.394;12.340;2023-05-14T14:06:57;22.00;58.60
23301;DHT22;11819;51.394;12.340;2023-05-14T14:09:23;22.00;58.40
23301;DHT22;11819;51.394;12.340;2023-05-14T14:11:49;22.00;58.40
23301;DHT22;11819;51.394;12.340;2023-05-14T14:14:16;22.00;58.10
23301;DHT22;11819;51.394;12.340;2023-05-14T14:16:42;22.00;57.40
23301;DHT22;11819;51.394;12.340;2023-05-14T14:19:07;21.90;57.10
23301;DHT22;11819;51.394;12.340;2023-05-14T14:21:33;21.90;57.10
23301;DHT22;11819;51.394;12.340;2023-05-14T14:24:00;21.90;56.80
23301;DHT22;11819;51.394;12.340;2023-05-14T14:26:26;21.90;56.50
23301;DHT22;11819;51.394;12.340;2023-05-14T14:28:52;21.90;56.80
23301;DHT22;11819;51.394;12.340;2023-05-14T14:31:19;21.90;57.10
23301;DHT22;11819;51.394;12.340;2023-05-14T14:33:45;21.90;56.80
23301;DHT22;11819;51.394;12.340;2023-05-14T14:36:10;22.00;56.80
23301;DHT22;11819;51.394;12.340;2023-05-14T14:38:36;22.10;57.10
23301;DHT22;11819;51.394;12.340;2023-05-14T14:41:04;22.20;57.40
23301;DHT22;11819;51.394;12.340;2023-05-14T14:43:31;22.20;57.40
23301;DHT22;11819;51.394;12.340;2023-05-14T14:45:57;22.30;56.90
23301;DHT22;11819;51.394;12.340;2023-05-14T14:50:56;22.80;55.40
23301;DHT22;11819;51.394;12.340;2023-05-14T14:53:22;23.20;54.80
23301;DHT22;11819;51.394;12.340;2023-05-14T14:55:48;23.40;53.70
23301;DHT22;11819;51.394;12.340;2023-05-14T14:58:14;23.60;54.00
23301;DHT22;11819;51.394;12.340;2023-05-14T15:00:40;24.00;54.80
23301;DHT22;11819;51.394;12.340;2023-05-14T15:03:06;24.40;53.90
23301;DHT22;11819;51.394;12.340;2023-05-14T15:05:33;24.80;53.00
23301;DHT22;11819;51.394;12.340;2023-05-14T15:07:59;24.80;52.50
23301;DHT22;11819;51.394;12.340;2023-05-14T15:10:26;24.70;53.00
23301;DHT22;11819;51.394;12.340;2023-05-14T15:12:56;24.70;52.80
23301;DHT22;11819;51.394;12.340;2023-05-14T15:15:22;24.60;53.00
23301;DHT22;11819;51.394;12.340;2023-05-14T15:17:48;24.50;53.50
23301;DHT22;11819;51.394;12.340;2023-05-14T15:20:13;24.30;53.80
23301;DHT22;11819;51.394;12.340;2023-05-14T15:22:39;24.10;54.30
23301;DHT22;11819;51.394;12.340;2023-05-14T15:25:05;23.90;54.30